Wind Cave National Park, SD

8:35 AM MDT on July 23, 2014 (GMT -0600)
Custer County (KCUT) Elev 5600 ft | 43.73 °N, 103.62 °W | Change Station

Current weather conditions updated 42 minutes ago

Clear
Clear
64 °F
Feels Like 64 °F
N
5
Wind Variable Wind from SSW

Today is forecast to be Warmer than yesterday. Showers and thunderstorms early tonight.

Today
High -- | Low -- °F
--% Chance of Precip.
Yesterday
High -- | Low -- °F
Precip. -- in
5:34 AM 8:27 PM
Waning Crescent, 10% visible
Pressure 30.24 in
Visibility 10.0 miles
Clouds Clear
Dew Point 53 °F
Humidity 67%
Rainfall 0.04 in
Snow Depth Not available.
UV 2 out of 12
Pollen 6.40 out of 12
Air Quality Not available.
Flu Activity Not available.
METAR KCUT 231353Z AUTO 20004KT 10SM CLR 18/12 A3039 RMK AO2 SLP238 T01780117

More Conditions Fewer Conditions

Pressure 30.24 in
Visibility 10.0 miles
Clouds Clear
Dew Point 53 °F
Humidity 67%
Rainfall 0.04 in
Snow Depth Not available.
UV 2 out of 12
Pollen 6.40 out of 12
Air Quality Not available.
Flu Activity Not available.
METAR KCUT 231353Z AUTO 20004KT 10SM CLR 18/12 A3039 RMK AO2 SLP238 T01780117

More Conditions Fewer Conditions

10-Day Weather Forecast

Almanac

Astronomy

Jul. 23, 2014 Rise Set
Actual Time 5:34 AM MDT 8:27 PM MDT
Civil Twilight 5:00 AM MDT 9:01 PM MDT
Nautical Twilight 4:17 AM MDT 9:43 PM MDT
Astronomical Twilight 3:26 AM MDT 10:33 PM MDT
Moon 2:55 AM MDT 5:57 PM MDT
Length of Visible Light 16h 00m
Length of Day
14h 53m
Tomorrow will be 1m 58s shorter.
Waning Crescent, 10% of the Moon is Illuminated
Today
Waning Crescent
Jul 26
New
Aug 3
First Quarter
Aug 10
Full
Aug 17
Last Quarter

Today's Extremes

State Highs State Lows

Community

WunderPhotos

Upload Photos

1,736,605 photos uploaded!

Nearby

Snow Depth

Station Depth Elevation
Blind Park 1 in 6890 ft
North Rapid Creek 0 in 6130 ft

Earthquake Activity

City Distance Mag. Time & Date
No recent earthquake activity has been reported nearby.
Minimum magnitude displayed is 2.5.

Coastal Water Temperatures

Place Temperature
No Stations Reporting

Nearby Weather Stations

Station Location Temp. Heat Index Dew Point Humidity Wind Precip. Elev Updated Type
RAWS CUSTER SD, Custer, SD 61 °F - 52 °F 73% West  at  2 mph 0.00 in / hr 5820 ft 7:24 AM MDT MADIS
RAWS BAKER PARK SD, Keystone, SD 71 °F 76 °F 54 °F 56% SW  at  5 mph 0.00 in / hr 4673 ft 7:35 AM MDT MADIS
RAWS RED CANYON SD, Edgemont, SD 70 °F - 57 °F 63% SSW  at  7 mph 0.00 in / hr 4644 ft 7:57 AM MDT MADIS
RAWS BKF3 PORTABLE SD, Hill City, SD 60 °F - 49 °F 68% North  at  0 mph 0.00 in / hr 6629 ft 7:36 AM MDT MADIS
Mike's Place Black Hills, Hermosa, SD 73.8 °F 77 °F 53 °F 48% WSW  at  7.0 mph 0.00 in / hr 4009 ft 8:35 AM MDT Normal
HADS BEAVER CREEK NEAR BUFFALO GAP 2S SD, Buffalo Gap, SD 71 °F - - - North  at  - 0.00 in / hr 3149 ft 7:45 AM MDT MADIS

Show More Stations Show Fewer Stations